Time;durP1;ratioP1;P1;durP2;ratioP2;P2;SDS_P1;SDS_P2;PMS_P1;PMS_P2;Temp;Humidity;BMP_temperature;BMP_pressure;BME280_temperature;BME280_humidity;BME280_pressure;Samples;Min_cycle;Max_cycle;Signal;HPM_P1;HPM_P2
2022/08/11 00:01:58;;;;;;;13.95;7.43;;;;;;;;;;3362148;42;20102;-59
2022/08/11 00:04:35;;;;;;;13.70;7.07;;;;;;;;;;3368891;42;20595;-58
2022/08/11 00:07:06;;;;;;;13.83;6.77;;;;;;;;;;3369237;42;20635;-57
2022/08/11 00:09:37;;;;;;;15.43;7.38;;;;;;;;;;3368808;42;20099;-57
2022/08/11 00:12:15;;;;;;;12.52;7.07;;;;;;;;;;3362142;42;20142;-57
2022/08/11 00:14:54;;;;;;;12.98;7.25;;;;;;;;;;3374161;42;20158;-58
2022/08/11 00:17:27;;;;;;;17.55;7.88;;;;;;;;;;3364039;42;20146;-56
2022/08/11 00:20:04;;;;;;;13.53;7.40;;;;;;;;;;3364672;42;20129;-56
2022/08/11 00:22:37;;;;;;;14.43;7.55;;;;;;;;;;3368730;42;20151;-57
2022/08/11 00:25:17;;;;;;;14.98;7.05;;;;;;;;;;3361800;42;20091;-59
2022/08/11 00:27:48;;;;;;;15.30;7.55;;;;;;;;;;3368338;42;20557;-61
2022/08/11 00:30:19;;;;;;;13.07;7.95;;;;;;;;;;3368714;42;20172;-58
2022/08/11 00:32:54;;;;;;;12.97;7.30;;;;;;;;;;3369234;42;20154;-58
2022/08/11 00:35:27;;;;;;;12.30;7.13;;;;;;;;;;3357561;42;20103;-57
2022/08/11 00:37:58;;;;;;;15.05;7.82;;;;;;;;;;3371835;42;20095;-58
2022/08/11 00:40:36;;;;;;;15.68;7.40;;;;;;;;;;3367211;42;20106;-58
2022/08/11 00:43:37;;;;;;;13.25;7.88;;;;;;;;;;3360124;42;20583;-59
2022/08/11 00:46:55;;;;;;;13.57;7.60;;;;;;;;;;3372972;42;20092;-58
2022/08/11 00:49:29;;;;;;;12.05;7.13;;;;;;;;;;3371099;42;20138;-57
2022/08/11 00:52:27;;;;;;;14.00;7.90;;;;;;;;;;3375269;42;20143;-59
2022/08/11 00:55:10;;;;;;;14.77;7.90;;;;;;;;;;3366724;42;20150;-56
2022/08/11 00:58:15;;;;;;;15.98;8.02;;;;;;;;;;3376947;42;20154;-58
2022/08/11 01:01:17;;;;;;;13.80;7.57;;;;;;;;;;3368252;42;20150;-57
2022/08/11 01:04:16;;;;;;;15.65;8.23;;;;;;;;;;3361512;42;20160;-57
2022/08/11 01:07:28;;;;;;;13.45;7.70;;;;;;;;;;3368676;42;20098;-56
2022/08/11 01:10:27;;;;;;;15.82;8.05;;;;;;;;;;3357327;42;20166;-60
2022/08/11 01:13:16;;;;;;;14.82;8.27;;;;;;;;;;3376049;42;20119;-56
2022/08/11 01:15:52;;;;;;;18.03;8.40;;;;;;;;;;3368020;42;20154;-58
2022/08/11 01:18:45;;;;;;;14.55;8.63;;;;;;;;;;3368915;42;20469;-57
2022/08/11 01:21:48;;;;;;;14.10;8.32;;;;;;;;;;3368688;42;20552;-58
2022/08/11 01:24:19;;;;;;;15.25;7.70;;;;;;;;;;3373329;42;20087;-59
2022/08/11 01:27:41;;;;;;;14.38;7.95;;;;;;;;;;3375780;42;20146;-56
2022/08/11 01:30:54;;;;;;;14.20;8.17;;;;;;;;;;3361817;42;20110;-56
2022/08/11 01:33:46;;;;;;;13.85;8.20;;;;;;;;;;3332373;42;20090;-57
2022/08/11 01:36:40;;;;;;;14.38;8.50;;;;;;;;;;3327042;42;20093;-57
2022/08/11 01:39:38;;;;;;;16.00;8.00;;;;;;;;;;3369495;42;20155;-58
2022/08/11 01:45:41;;;;;;;14.63;7.73;;;;;;;;;;3373690;42;20500;-58
2022/08/11 01:48:47;;;;;;;14.55;7.95;;;;;;;;;;3365322;42;20084;-58
2022/08/11 01:51:40;;;;;;;16.77;8.30;;;;;;;;;;3337340;42;20185;-58
2022/08/11 01:54:26;;;;;;;15.27;8.00;;;;;;;;;;3375269;42;20082;-57
2022/08/11 01:57:28;;;;;;;12.35;7.95;;;;;;;;;;3367622;42;20472;-58
2022/08/11 02:00:12;;;;;;;14.07;8.57;;;;;;;;;;3359809;42;20087;-57
2022/08/11 02:02:55;;;;;;;14.32;8.20;;;;;;;;;;3369002;42;20087;-58
2022/08/11 02:05:39;;;;;;;13.60;7.70;;;;;;;;;;3382296;42;20322;-56
2022/08/11 02:08:23;;;;;;;14.15;7.82;;;;;;;;;;3382472;42;20091;-58
2022/08/11 02:14:15;;;;;;;14.57;8.27;;;;;;;;;;3369360;42;20099;-59
2022/08/11 02:17:01;;;;;;;18.75;9.05;;;;;;;;;;3374719;42;20107;-57
2022/08/11 02:25:50;;;;;;;21.80;9.88;;;;;;;;;;3371655;42;20082;-58
2022/08/11 02:28:34;;;;;;;19.57;9.97;;;;;;;;;;3368369;42;20647;-58
2022/08/11 02:34:22;;;;;;;29.02;13.25;;;;;;;;;;3372858;42;20208;-58
2022/08/11 02:37:02;;;;;;;22.13;10.65;;;;;;;;;;3368065;42;20095;-58
2022/08/11 02:39:54;;;;;;;26.98;10.52;;;;;;;;;;3374506;42;20217;-56
2022/08/11 02:42:37;;;;;;;26.57;10.90;;;;;;;;;;3376396;42;20099;-57
2022/08/11 02:45:11;;;;;;;19.45;10.27;;;;;;;;;;3366633;42;20091;-57
2022/08/11 02:51:36;;;;;;;30.55;13.43;;;;;;;;;;3375418;42;20093;-58
2022/08/11 02:54:20;;;;;;;31.13;13.43;;;;;;;;;;3353253;42;20091;-57
2022/08/11 02:57:05;;;;;;;30.67;13.50;;;;;;;;;;3349945;42;20246;-56
2022/08/11 02:59:56;;;;;;;30.95;13.90;;;;;;;;;;3372243;42;20135;-57
2022/08/11 03:02:30;;;;;;;31.38;13.70;;;;;;;;;;3376329;42;20164;-58
2022/08/11 03:05:16;;;;;;;26.95;12.45;;;;;;;;;;3377185;42;20130;-58
2022/08/11 03:07:51;;;;;;;24.98;11.23;;;;;;;;;;3376774;42;20110;-60
2022/08/11 03:16:43;;;;;;;22.23;10.47;;;;;;;;;;3377120;42;20130;-58
2022/08/11 03:17:02;;;;;;;23.35;10.10;;;;;;;;;;3370757;42;20159;-57
2022/08/11 03:20:05;;;;;;;22.08;10.23;;;;;;;;;;3370870;42;20087;-56
2022/08/11 03:22:44;;;;;;;21.42;9.18;;;;;;;;;;3377098;42;20150;-59
2022/08/11 03:25:30;;;;;;;21.10;9.13;;;;;;;;;;3368258;42;20119;-54
2022/08/11 03:28:35;;;;;;;24.85;10.68;;;;;;;;;;3367911;42;20103;-56
2022/08/11 03:31:29;;;;;;;27.38;11.13;;;;;;;;;;3369121;42;20131;-57
2022/08/11 03:34:06;;;;;;;31.95;13.27;;;;;;;;;;3381273;42;20102;-58
2022/08/11 03:36:59;;;;;;;28.58;12.52;;;;;;;;;;3369730;42;20095;-57
2022/08/11 03:39:41;;;;;;;30.13;13.70;;;;;;;;;;3376634;42;20145;-59
2022/08/11 03:42:37;;;;;;;29.02;13.02;;;;;;;;;;3369117;42;20103;-59
2022/08/11 03:45:25;;;;;;;33.33;14.13;;;;;;;;;;3381554;42;20097;-58
2022/08/11 03:48:12;;;;;;;31.33;14.60;;;;;;;;;;3375750;42;20603;-56
2022/08/11 03:51:16;;;;;;;32.05;13.80;;;;;;;;;;3371399;42;20509;-57
2022/08/11 03:54:04;;;;;;;24.87;11.63;;;;;;;;;;3337859;42;20142;-59
2022/08/11 03:56:54;;;;;;;31.15;13.07;;;;;;;;;;3383399;42;20122;-57
2022/08/11 03:59:28;;;;;;;24.88;10.77;;;;;;;;;;3375872;42;20130;-55
2022/08/11 04:02:17;;;;;;;19.70;10.50;;;;;;;;;;3376276;42;20141;-56
2022/08/11 04:05:13;;;;;;;20.67;11.20;;;;;;;;;;3375709;42;20567;-57
2022/08/11 04:07:56;;;;;;;16.83;9.67;;;;;;;;;;3370619;42;20139;-58
2022/08/11 04:10:46;;;;;;;15.88;9.73;;;;;;;;;;3371780;42;20545;-59
2022/08/11 04:13:55;;;;;;;16.67;10.13;;;;;;;;;;3377202;42;20577;-57
2022/08/11 04:16:45;;;;;;;18.63;10.02;;;;;;;;;;3376369;42;20102;-58
2022/08/11 04:19:46;;;;;;;17.75;10.15;;;;;;;;;;3373789;42;20127;-57
2022/08/11 04:22:26;;;;;;;15.93;9.50;;;;;;;;;;3369052;42;20090;-57
2022/08/11 04:25:40;;;;;;;19.90;11.85;;;;;;;;;;3375894;42;20516;-57
2022/08/11 04:28:35;;;;;;;15.02;9.48;;;;;;;;;;3347724;42;20152;-58
2022/08/11 04:31:36;;;;;;;13.70;8.15;;;;;;;;;;3344414;42;20634;-59
2022/08/11 04:34:23;;;;;;;13.57;8.82;;;;;;;;;;3373715;42;20347;-60
2022/08/11 04:37:33;;;;;;;13.97;8.33;;;;;;;;;;3376838;42;20571;-56
2022/08/11 04:40:41;;;;;;;15.07;9.05;;;;;;;;;;3368932;42;20091;-59
2022/08/11 04:43:45;;;;;;;15.02;9.15;;;;;;;;;;3367207;42;20135;-57
2022/08/11 04:46:52;;;;;;;15.27;9.48;;;;;;;;;;3373967;42;20134;-57
2022/08/11 05:02:55;;;;;;;12.23;7.85;;;;;;;;;;3371119;42;20150;-57
2022/08/11 05:05:45;;;;;;;14.57;8.95;;;;;;;;;;3368920;42;20609;-57
2022/08/11 05:08:22;;;;;;;17.00;9.10;;;;;;;;;;3369923;42;20585;-57
2022/08/11 05:11:12;;;;;;;20.48;8.55;;;;;;;;;;3375228;42;20172;-58
2022/08/11 05:37:09;;;;;;;11.47;7.33;;;;;;;;;;3382180;42;20150;-57
2022/08/11 05:56:51;;;;;;;11.57;6.00;;;;;;;;;;3368765;42;20097;-58
2022/08/11 05:59:24;;;;;;;9.80;6.32;;;;;;;;;;3373559;42;20099;-58
2022/08/11 06:02:06;;;;;;;9.75;6.25;;;;;;;;;;3373436;42;20158;-59
2022/08/11 06:04:38;;;;;;;8.73;5.80;;;;;;;;;;3373139;42;20091;-58
2022/08/11 06:07:11;;;;;;;11.73;6.22;;;;;;;;;;3366440;42;20110;-59
2022/08/11 06:09:45;;;;;;;9.60;6.22;;;;;;;;;;3365365;42;20182;-57
2022/08/11 06:12:31;;;;;;;10.27;6.70;;;;;;;;;;3374478;42;20095;-58
2022/08/11 06:15:04;;;;;;;10.43;6.70;;;;;;;;;;3373210;42;20091;-57
2022/08/11 06:17:44;;;;;;;11.10;6.53;;;;;;;;;;3365167;42;20600;-58
2022/08/11 06:20:15;;;;;;;10.50;6.72;;;;;;;;;;3371233;42;20584;-59
2022/08/11 06:22:53;;;;;;;11.20;7.20;;;;;;;;;;3372745;42;20087;-60
2022/08/11 06:25:34;;;;;;;12.27;6.97;;;;;;;;;;3375085;42;20095;-58
2022/08/11 06:28:06;;;;;;;11.95;6.65;;;;;;;;;;3368687;42;20559;-57
2022/08/11 06:30:39;;;;;;;9.83;6.43;;;;;;;;;;3362383;42;20512;-56
2022/08/11 06:33:28;;;;;;;10.70;6.55;;;;;;;;;;3376508;42;20603;-57
2022/08/11 06:36:09;;;;;;;10.95;6.88;;;;;;;;;;3371485;42;20404;-58
2022/08/11 06:38:53;;;;;;;10.88;6.90;;;;;;;;;;3369801;42;20531;-57
2022/08/11 06:41:46;;;;;;;10.38;6.35;;;;;;;;;;3381933;42;20110;-57
2022/08/11 06:44:41;;;;;;;11.50;6.10;;;;;;;;;;3368313;42;20532;-58
2022/08/11 06:47:12;;;;;;;11.23;6.70;;;;;;;;;;3371080;42;20158;-58
2022/08/11 06:52:51;;;;;;;11.98;5.65;;;;;;;;;;3323449;42;20172;-59
2022/08/11 07:01:12;;;;;;;10.13;5.15;;;;;;;;;;3370494;42;20105;-57
2022/08/11 07:03:45;;;;;;;9.20;5.70;;;;;;;;;;3369318;42;20596;-59
2022/08/11 07:06:31;;;;;;;9.63;5.50;;;;;;;;;;3374473;42;20099;-58
2022/08/11 07:29:15;;;;;;;11.38;5.28;;;;;;;;;;3370693;42;20147;-59
2022/08/11 07:31:49;;;;;;;8.82;5.45;;;;;;;;;;3369438;42;20138;-59
2022/08/11 07:34:24;;;;;;;12.57;5.40;;;;;;;;;;3375523;42;20592;-60
2022/08/11 07:36:56;;;;;;;11.10;5.70;;;;;;;;;;3360488;42;20746;-57
2022/08/11 07:39:31;;;;;;;8.97;4.60;;;;;;;;;;3372708;42;20142;-58
2022/08/11 07:42:07;;;;;;;10.48;5.90;;;;;;;;;;3368932;42;20131;-61
2022/08/11 07:53:13;;;;;;;14.17;4.93;;;;;;;;;;3339542;42;20749;-60
2022/08/11 07:55:46;;;;;;;9.77;4.88;;;;;;;;;;3368591;42;20103;-60
2022/08/11 08:18:11;;;;;;;8.25;4.25;;;;;;;;;;3375834;42;20103;-59
2022/08/11 08:20:48;;;;;;;8.07;4.50;;;;;;;;;;3360930;42;20774;-59
2022/08/11 08:23:31;;;;;;;7.40;4.30;;;;;;;;;;3370588;42;20548;-61
2022/08/11 08:26:57;;;;;;;8.98;4.60;;;;;;;;;;3368813;42;20094;-58
2022/08/11 08:31:50;;;;;;;8.23;4.68;;;;;;;;;;3367642;42;20130;-60
2022/08/11 08:34:21;;;;;;;7.83;4.40;;;;;;;;;;3375485;42;20225;-59
2022/08/11 08:36:53;;;;;;;7.75;4.50;;;;;;;;;;3375171;42;20155;-62
2022/08/11 08:39:24;;;;;;;7.53;4.32;;;;;;;;;;3366840;42;20083;-59
2022/08/11 08:41:56;;;;;;;10.50;5.22;;;;;;;;;;3373880;42;20714;-58
2022/08/11 08:44:27;;;;;;;9.95;4.50;;;;;;;;;;3363204;42;20712;-58
2022/08/11 08:46:58;;;;;;;9.77;4.33;;;;;;;;;;3366786;42;20180;-58
2022/08/11 08:49:48;;;;;;;9.55;3.88;;;;;;;;;;3361586;42;20556;-61
2022/08/11 08:52:22;;;;;;;9.40;3.95;;;;;;;;;;3369001;42;20087;-61
2022/08/11 08:54:55;;;;;;;8.15;4.07;;;;;;;;;;3364201;42;20114;-58
2022/08/11 08:57:27;;;;;;;12.65;3.97;;;;;;;;;;3365678;42;20087;-60
2022/08/11 08:59:58;;;;;;;10.13;3.90;;;;;;;;;;3359374;42;20118;-60
2022/08/11 09:02:29;;;;;;;8.80;4.00;;;;;;;;;;3376574;42;20115;-59
2022/08/11 09:05:02;;;;;;;8.82;4.00;;;;;;;;;;3372954;42;20110;-59
2022/08/11 09:07:33;;;;;;;10.63;5.35;;;;;;;;;;3375480;42;20257;-60
2022/08/11 09:10:05;;;;;;;9.57;4.63;;;;;;;;;;3375458;42;20627;-58
2022/08/11 09:12:38;;;;;;;7.30;4.00;;;;;;;;;;3361181;42;20130;-57
2022/08/11 09:15:10;;;;;;;7.38;3.45;;;;;;;;;;3361778;42;20105;-59
2022/08/11 09:17:49;;;;;;;7.13;4.07;;;;;;;;;;3375130;42;20532;-59
2022/08/11 09:20:22;;;;;;;6.85;3.60;;;;;;;;;;3366433;42;20134;-59
2022/08/11 09:28:38;;;;;;;8.07;3.85;;;;;;;;;;3363388;42;20087;-61
2022/08/11 09:31:10;;;;;;;10.18;3.60;;;;;;;;;;3373409;42;20175;-58
2022/08/11 09:33:42;;;;;;;9.85;3.80;;;;;;;;;;3366252;42;20086;-61
2022/08/11 09:41:53;;;;;;;8.90;3.85;;;;;;;;;;3381237;42;20146;-60
2022/08/11 09:47:35;;;;;;;8.77;4.00;;;;;;;;;;3371097;42;20154;-59
2022/08/11 09:50:08;;;;;;;7.18;3.90;;;;;;;;;;3372490;42;20583;-60
2022/08/11 09:52:39;;;;;;;7.57;3.70;;;;;;;;;;3360924;42;20154;-58
2022/08/11 09:55:12;;;;;;;7.75;4.13;;;;;;;;;;3376312;42;20138;-58
2022/08/11 10:00:41;;;;;;;8.43;3.60;;;;;;;;;;3375440;42;20094;-59
2022/08/11 10:03:23;;;;;;;10.73;3.92;;;;;;;;;;3368084;42;20600;-60
2022/08/11 10:08:53;;;;;;;8.48;3.80;;;;;;;;;;3374698;42;20129;-60
2022/08/11 10:11:24;;;;;;;9.05;3.95;;;;;;;;;;3358978;42;20094;-58
2022/08/11 10:16:45;;;;;;;8.20;4.30;;;;;;;;;;3379064;42;20138;-59
2022/08/11 10:19:18;;;;;;;8.47;4.07;;;;;;;;;;3363329;42;20102;-58
2022/08/11 10:27:57;;;;;;;12.00;3.92;;;;;;;;;;3341712;42;20096;-57
2022/08/11 10:36:07;;;;;;;8.98;4.03;;;;;;;;;;3367204;42;20138;-58
2022/08/11 10:38:39;;;;;;;6.70;3.60;;;;;;;;;;3369174;42;20079;-58
2022/08/11 10:43:59;;;;;;;7.07;3.60;;;;;;;;;;3377402;42;20603;-58
2022/08/11 10:49:20;;;;;;;8.05;3.70;;;;;;;;;;3377014;42;20095;-60
2022/08/11 11:00:23;;;;;;;8.40;3.63;;;;;;;;;;3367026;42;20095;-58
2022/08/11 11:02:54;;;;;;;8.55;4.75;;;;;;;;;;3373144;42;20094;-58
2022/08/11 11:05:29;;;;;;;12.63;6.13;;;;;;;;;;3367781;42;20213;-58
2022/08/11 11:11:04;;;;;;;8.93;3.90;;;;;;;;;;3380056;42;20138;-59
2022/08/11 11:19:18;;;;;;;7.70;3.60;;;;;;;;;;3383298;42;20095;-56
2022/08/11 11:21:51;;;;;;;8.60;3.80;;;;;;;;;;3369296;42;20103;-59
2022/08/11 11:24:38;;;;;;;6.30;3.40;;;;;;;;;;3367139;42;20584;-59
2022/08/11 11:27:31;;;;;;;7.33;3.30;;;;;;;;;;3376107;42;20603;-59
2022/08/11 11:30:07;;;;;;;6.85;3.30;;;;;;;;;;3369078;42;20114;-58
2022/08/11 11:32:57;;;;;;;8.38;3.67;;;;;;;;;;3369092;42;20197;-57
2022/08/11 11:35:54;;;;;;;8.45;4.13;;;;;;;;;;3375207;42;20118;-59
2022/08/11 11:38:25;;;;;;;7.05;3.55;;;;;;;;;;3354877;42;20556;-58
2022/08/11 11:43:46;;;;;;;6.60;3.55;;;;;;;;;;3365488;42;20091;-58
2022/08/11 11:46:17;;;;;;;7.80;3.40;;;;;;;;;;3359476;42;20106;-59
2022/08/11 11:48:48;;;;;;;13.27;3.70;;;;;;;;;;3372431;42;20114;-58
2022/08/11 11:51:21;;;;;;;6.32;3.35;;;;;;;;;;3364324;42;20604;-59
2022/08/11 11:53:52;;;;;;;7.03;3.40;;;;;;;;;;3365382;42;20225;-59
2022/08/11 11:56:23;;;;;;;6.80;3.50;;;;;;;;;;3372705;42;20087;-58
2022/08/11 12:01:44;;;;;;;8.40;3.28;;;;;;;;;;3363863;42;20566;-59
2022/08/11 12:04:15;;;;;;;8.85;3.60;;;;;;;;;;3374440;42;20107;-58
2022/08/11 12:06:46;;;;;;;7.83;4.00;;;;;;;;;;3371414;42;20111;-58
2022/08/11 12:09:21;;;;;;;8.20;3.60;;;;;;;;;;3361707;42;20555;-61
2022/08/11 12:14:42;;;;;;;6.95;3.45;;;;;;;;;;3363591;42;20091;-59
2022/08/11 12:17:13;;;;;;;7.15;3.35;;;;;;;;;;3369312;42;20091;-58
2022/08/11 12:19:44;;;;;;;8.43;3.70;;;;;;;;;;3359582;42;20528;-58
2022/08/11 12:27:55;;;;;;;10.75;4.00;;;;;;;;;;3356062;42;20168;-58
2022/08/11 12:30:26;;;;;;;8.13;3.70;;;;;;;;;;3372953;42;20168;-59
2022/08/11 12:32:58;;;;;;;8.77;3.87;;;;;;;;;;3367787;42;20094;-60
2022/08/11 12:35:29;;;;;;;12.32;3.40;;;;;;;;;;3368869;42;20608;-60
2022/08/11 12:38:01;;;;;;;8.10;3.47;;;;;;;;;;3375724;42;20098;-60
2022/08/11 12:46:18;;;;;;;9.57;3.40;;;;;;;;;;3370940;42;20118;-59
2022/08/11 12:51:57;;;;;;;9.82;3.60;;;;;;;;;;3372443;42;20098;-59
2022/08/11 12:54:33;;;;;;;12.38;3.63;;;;;;;;;;3368543;42;20154;-58
2022/08/11 13:06:03;;;;;;;10.85;3.90;;;;;;;;;;3387446;42;20146;-59
2022/08/11 13:08:35;;;;;;;11.68;4.22;;;;;;;;;;3364062;42;20091;-59
2022/08/11 13:13:57;;;;;;;9.33;3.30;;;;;;;;;;3367826;42;20122;-59
2022/08/11 13:16:30;;;;;;;9.38;3.30;;;;;;;;;;3375065;42;20098;-59
2022/08/11 13:19:01;;;;;;;9.23;3.65;;;;;;;;;;3382188;42;20154;-59
2022/08/11 13:21:32;;;;;;;7.93;3.25;;;;;;;;;;3367721;42;20171;-59
2022/08/11 13:24:04;;;;;;;7.78;3.25;;;;;;;;;;3366325;42;20099;-59
2022/08/11 13:26:36;;;;;;;7.50;3.10;;;;;;;;;;3366693;42;20109;-58
2022/08/11 13:29:07;;;;;;;8.60;2.95;;;;;;;;;;3375548;42;20157;-58
2022/08/11 13:31:38;;;;;;;8.63;3.20;;;;;;;;;;3359082;42;20099;-59
2022/08/11 13:34:09;;;;;;;9.25;3.10;;;;;;;;;;3359587;42;20091;-56
2022/08/11 13:36:40;;;;;;;8.07;3.40;;;;;;;;;;3358987;42;20218;-57
2022/08/11 13:39:12;;;;;;;7.60;3.13;;;;;;;;;;3373723;42;20087;-59
2022/08/11 13:41:44;;;;;;;6.43;3.00;;;;;;;;;;3372661;42;20509;-58
2022/08/11 13:44:16;;;;;;;10.82;3.45;;;;;;;;;;3371881;42;20170;-58
2022/08/11 13:46:48;;;;;;;8.02;3.00;;;;;;;;;;3360706;42;20507;-58
2022/08/11 13:49:19;;;;;;;7.22;3.05;;;;;;;;;;3368197;42;20083;-58
2022/08/11 13:51:52;;;;;;;7.63;3.00;;;;;;;;;;3374518;42;20111;-58
2022/08/11 13:54:26;;;;;;;8.35;3.00;;;;;;;;;;3366286;42;20146;-59
2022/08/11 13:57:00;;;;;;;7.50;3.25;;;;;;;;;;3368063;42;20165;-59
2022/08/11 13:59:31;;;;;;;11.13;3.10;;;;;;;;;;3371172;42;20091;-60
2022/08/11 14:02:07;;;;;;;8.32;3.20;;;;;;;;;;3364366;42;20098;-60
2022/08/11 14:04:53;;;;;;;6.73;2.90;;;;;;;;;;3368947;42;20186;-59
2022/08/11 14:07:36;;;;;;;8.50;3.03;;;;;;;;;;3382209;42;20156;-59
2022/08/11 14:10:09;;;;;;;8.27;3.00;;;;;;;;;;3367389;42;20627;-61
2022/08/11 14:15:33;;;;;;;10.30;3.40;;;;;;;;;;3368932;42;20608;-61
2022/08/11 14:18:28;;;;;;;8.83;3.63;;;;;;;;;;3374224;42;20095;-58
2022/08/11 14:23:54;;;;;;;7.80;3.33;;;;;;;;;;3366928;42;20083;-58
2022/08/11 14:26:26;;;;;;;7.10;3.30;;;;;;;;;;3365177;42;20090;-57
2022/08/11 14:29:02;;;;;;;8.85;3.70;;;;;;;;;;3374506;42;20146;-58
2022/08/11 14:31:34;;;;;;;7.20;3.00;;;;;;;;;;3375936;42;20201;-58
2022/08/11 14:34:07;;;;;;;11.02;3.70;;;;;;;;;;3364645;42;20083;-60
2022/08/11 14:36:39;;;;;;;10.60;3.42;;;;;;;;;;3362664;42;20090;-57
2022/08/11 14:39:12;;;;;;;11.93;3.72;;;;;;;;;;3370164;42;20145;-59
2022/08/11 14:47:36;;;;;;;11.65;3.63;;;;;;;;;;3364479;42;20091;-58
2022/08/11 14:50:10;;;;;;;12.35;3.40;;;;;;;;;;3366784;42;20159;-58
2022/08/11 14:53:00;;;;;;;9.25;3.20;;;;;;;;;;3364715;42;20138;-59
2022/08/11 14:58:27;;;;;;;8.23;3.17;;;;;;;;;;3372751;42;20091;-59
2022/08/11 15:00:59;;;;;;;7.47;2.70;;;;;;;;;;3365601;42;20130;-62
2022/08/11 15:03:32;;;;;;;10.05;2.90;;;;;;;;;;3365553;42;20138;-58
2022/08/11 15:06:04;;;;;;;9.55;3.30;;;;;;;;;;3363559;42;20257;-61
2022/08/11 15:08:55;;;;;;;12.00;2.75;;;;;;;;;;3373099;42;20146;-59
2022/08/11 15:17:09;;;;;;;10.27;3.10;;;;;;;;;;3376081;42;20087;-60
2022/08/11 15:24:18;;;;;;;9.88;3.10;;;;;;;;;;3373808;42;20119;-63
2022/08/11 15:25:22;;;;;;;8.40;3.10;;;;;;;;;;3368365;42;20106;-59
2022/08/11 15:39:23;;;;;;;8.63;3.30;;;;;;;;;;3372266;42;20141;-58
2022/08/11 15:47:56;;;;;;;11.38;4.20;;;;;;;;;;3372579;42;20588;-58
2022/08/11 15:50:29;;;;;;;8.40;3.25;;;;;;;;;;3361043;42;20173;-57
2022/08/11 15:53:23;;;;;;;8.13;3.37;;;;;;;;;;3366773;42;20102;-60
2022/08/11 15:55:54;;;;;;;10.18;3.50;;;;;;;;;;3363517;42;20082;-59
2022/08/11 16:04:25;;;;;;;9.68;3.70;;;;;;;;;;3368806;42;20114;-57
2022/08/11 16:07:01;;;;;;;9.13;3.33;;;;;;;;;;3364013;42;20099;-59
2022/08/11 16:09:36;;;;;;;12.05;3.78;;;;;;;;;;3364652;42;20091;-59
2022/08/11 16:12:11;;;;;;;9.18;3.67;;;;;;;;;;3364613;42;20095;-59
2022/08/11 16:17:39;;;;;;;15.40;4.90;;;;;;;;;;3366903;42;20095;-58
2022/08/11 16:20:14;;;;;;;20.80;6.33;;;;;;;;;;3364330;42;20224;-58
2022/08/11 16:22:47;;;;;;;27.40;7.70;;;;;;;;;;3359707;42;20103;-61
2022/08/11 16:25:23;;;;;;;23.35;6.40;;;;;;;;;;3371706;42;20095;-56
2022/08/11 16:27:58;;;;;;;12.90;4.20;;;;;;;;;;3366162;42;20105;-59
2022/08/11 16:30:30;;;;;;;15.18;4.55;;;;;;;;;;3374682;42;20134;-58
2022/08/11 16:33:03;;;;;;;11.10;4.50;;;;;;;;;;3366045;42;20090;-55
2022/08/11 16:38:38;;;;;;;25.08;7.18;;;;;;;;;;3379078;42;20091;-56
2022/08/11 16:41:14;;;;;;;22.27;7.03;;;;;;;;;;3367116;42;20115;-55
2022/08/11 16:49:32;;;;;;;14.23;4.72;;;;;;;;;;3376584;42;20106;-58
2022/08/11 16:52:10;;;;;;;15.05;4.35;;;;;;;;;;3361259;42;20639;-58
2022/08/11 16:54:42;;;;;;;13.65;3.58;;;;;;;;;;3361648;42;20180;-55
2022/08/11 17:00:15;;;;;;;11.57;3.53;;;;;;;;;;3356018;42;20194;-59
2022/08/11 17:14:39;;;;;;;11.33;3.77;;;;;;;;;;3375191;42;20090;-57
2022/08/11 17:17:15;;;;;;;11.63;3.30;;;;;;;;;;3382259;42;20113;-59
2022/08/11 17:19:52;;;;;;;13.68;3.78;;;;;;;;;;3368190;42;20134;-60
2022/08/11 17:25:12;;;;;;;11.60;3.65;;;;;;;;;;3375076;42;20197;-58
2022/08/11 17:27:44;;;;;;;12.60;3.67;;;;;;;;;;3366780;42;20099;-59
2022/08/11 17:30:15;;;;;;;10.57;4.60;;;;;;;;;;3368405;42;20113;-59
2022/08/11 17:35:39;;;;;;;9.43;2.95;;;;;;;;;;3375325;42;20087;-59
2022/08/11 17:38:14;;;;;;;8.05;3.70;;;;;;;;;;3375275;42;20083;-58
2022/08/11 17:49:30;;;;;;;9.90;3.25;;;;;;;;;;3369013;42;20095;-59
2022/08/11 18:00:30;;;;;;;9.63;3.85;;;;;;;;;;3375334;42;20535;-58
2022/08/11 18:06:11;;;;;;;8.00;3.40;;;;;;;;;;3345617;42;20564;-58
